Time;durP1;ratioP1;P1;durP2;ratioP2;P2;SDS_P1;SDS_P2;PMS_P1;PMS_P2;Temp;Humidity;BMP_temperature;BMP_pressure;BME280_temperature;BME280_humidity;BME280_pressure;Samples;Min_cycle;Max_cycle;Signal;HPM_P1;HPM_P2
2021/01/28 00:01:09;;;;;;;5.33;4.40;;;;;;;9.30;50.20;98422.82;1808129;78;22233;-65
2021/01/28 00:03:37;;;;;;;6.33;4.83;;;;;;;9.30;50.21;98420.17;1796677;78;21635;-64
2021/01/28 00:06:05;;;;;;;6.80;5.00;;;;;;;9.29;50.21;98422.01;1801802;78;21293;-66
2021/01/28 00:08:33;;;;;;;7.72;5.05;;;;;;;9.30;50.20;98421.50;1758841;80;21230;-65
2021/01/28 00:11:01;;;;;;;5.92;4.50;;;;;;;9.30;50.20;98420.17;1769948;80;21638;-65
2021/01/28 00:13:28;;;;;;;6.15;4.70;;;;;;;9.30;50.21;98407.73;1762587;79;21428;-65
2021/01/28 00:15:55;;;;;;;6.25;4.72;;;;;;;9.31;50.21;98399.27;1748906;79;21122;-65
2021/01/28 00:18:23;;;;;;;5.53;4.40;;;;;;;9.31;50.19;98405.89;1789797;78;21154;-66
2021/01/28 00:20:50;;;;;;;6.35;4.87;;;;;;;9.32;50.18;98416.82;1772629;79;21149;-66
2021/01/28 00:23:18;;;;;;;5.62;4.42;;;;;;;9.31;50.18;98413.36;1797644;78;21127;-66
2021/01/28 00:25:48;;;;;;;6.22;4.78;;;;;;;9.31;50.18;98408.55;1797078;78;21258;-66
2021/01/28 00:28:18;;;;;;;6.75;5.22;;;;;;;9.30;50.19;98419.66;1783835;79;21226;-66
2021/01/28 00:30:49;;;;;;;6.05;4.87;;;;;;;9.31;50.19;98417.81;1781715;79;21134;-65
2021/01/28 00:33:23;;;;;;;7.17;5.37;;;;;;;9.32;50.21;98414.17;1770498;79;21600;-66
2021/01/28 00:35:53;;;;;;;7.00;5.12;;;;;;;9.30;50.19;98409.57;1787031;78;21158;-67
2021/01/28 00:38:27;;;;;;;5.80;4.65;;;;;;;9.30;50.22;98402.95;1779603;79;22362;-65
2021/01/28 00:40:56;;;;;;;6.90;4.83;;;;;;;9.30;50.25;98396.31;1774033;79;21216;-66
2021/01/28 00:43:23;;;;;;;7.10;5.20;;;;;;;9.28;50.22;98393.86;1772019;79;21190;-66
2021/01/28 00:45:51;;;;;;;6.58;5.28;;;;;;;9.29;50.23;98394.66;1765182;79;21193;-66
2021/01/28 00:48:20;;;;;;;5.20;4.62;;;;;;;9.30;50.22;98389.70;1776778;79;21674;-67
2021/01/28 00:50:49;;;;;;;5.55;4.97;;;;;;;9.28;50.25;98375.30;1786221;79;21419;-65
2021/01/28 00:53:19;;;;;;;5.58;4.75;;;;;;;9.28;50.25;98373.98;1790076;78;21202;-66
2021/01/28 00:55:46;;;;;;;5.80;4.83;;;;;;;9.29;50.25;98393.34;1820651;78;21187;-67
2021/01/28 00:58:25;;;;;;;6.85;4.50;;;;;;;9.34;50.24;98394.92;1796581;77;27389;-66
2021/01/28 01:00:54;;;;;;;6.00;5.28;;;;;;;9.28;50.23;98372.66;1752719;80;21186;-66
2021/01/28 01:03:24;;;;;;;5.75;4.80;;;;;;;9.29;50.21;98372.14;1780694;79;21228;-65
2021/01/28 01:05:54;;;;;;;6.60;5.30;;;;;;;9.29;50.24;98370.33;1765206;80;22003;-65
2021/01/28 01:08:28;;;;;;;5.33;4.83;;;;;;;9.29;50.22;98385.39;1791003;79;21170;-66
2021/01/28 01:11:04;;;;;;;5.35;4.70;;;;;;;9.30;50.22;98393.67;1794756;79;21274;-65
2021/01/28 01:13:34;;;;;;;5.53;4.70;;;;;;;9.29;50.21;98382.73;1772229;79;21135;-66
2021/01/28 01:16:12;;;;;;;6.73;5.43;;;;;;;9.33;50.24;98366.28;1819909;77;28567;-67
2021/01/28 01:18:42;;;;;;;6.47;4.72;;;;;;;9.29;50.25;98366.84;1781360;79;21110;-65
2021/01/28 01:21:11;;;;;;;5.62;4.75;;;;;;;9.28;50.26;98371.33;1779805;79;21266;-65
2021/01/28 01:23:42;;;;;;;5.65;4.95;;;;;;;9.30;50.24;98368.49;1792243;79;21193;-66
2021/01/28 01:26:12;;;;;;;5.53;4.83;;;;;;;9.29;50.25;98363.70;1785669;79;21156;-65
2021/01/28 01:28:40;;;;;;;5.67;4.80;;;;;;;9.29;50.24;98363.70;1796560;79;21113;-66
2021/01/28 01:31:09;;;;;;;6.42;4.55;;;;;;;9.30;50.22;98363.19;1797014;79;21629;-64
2021/01/28 01:33:38;;;;;;;6.12;5.10;;;;;;;9.29;50.21;98371.66;1760726;79;21370;-66
2021/01/28 01:36:08;;;;;;;5.55;4.47;;;;;;;9.30;50.24;98375.12;1786081;79;21177;-65
2021/01/28 01:38:38;;;;;;;5.35;4.65;;;;;;;9.30;50.22;98367.16;1783113;80;21150;-66
2021/01/28 01:41:06;;;;;;;5.78;4.90;;;;;;;9.29;50.23;98361.54;1799245;79;21146;-65
2021/01/28 01:43:36;;;;;;;5.75;4.97;;;;;;;9.30;50.25;98360.55;1785099;79;21109;-65
2021/01/28 01:46:10;;;;;;;5.58;4.97;;;;;;;9.30;50.22;98364.52;1774382;79;21192;-65
2021/01/28 01:48:51;;;;;;;5.40;4.62;;;;;;;9.29;50.22;98356.23;1790653;79;21213;-65
2021/01/28 01:51:25;;;;;;;5.87;5.15;;;;;;;9.29;50.22;98348.29;1778068;79;21178;-65
2021/01/28 01:54:08;;;;;;;6.47;4.80;;;;;;;9.25;50.28;98350.02;1793397;79;21196;-66
2021/01/28 01:56:45;;;;;;;7.03;4.55;;;;;;;9.25;50.25;98335.93;1806021;79;21154;-66
2021/01/28 01:59:28;;;;;;;5.03;4.10;;;;;;;9.23;50.29;98320.25;1799052;79;21363;-66
2021/01/28 02:02:10;;;;;;;5.62;4.28;;;;;;;9.28;50.31;98322.81;1802146;77;27219;-66
2021/01/28 02:04:59;;;;;;;5.25;4.42;;;;;;;9.23;50.31;98323.38;1742254;82;21125;-65
2021/01/28 02:07:53;;;;;;;4.65;4.00;;;;;;;9.25;50.33;98327.50;1796161;79;28102;-65
2021/01/28 02:10:39;;;;;;;4.40;4.00;;;;;;;9.21;50.35;98320.11;1766186;78;21155;-67
2021/01/28 02:13:16;;;;;;;5.03;4.05;;;;;;;9.24;50.37;98315.76;1781674;79;26524;-66
2021/01/28 02:15:46;;;;;;;5.42;4.12;;;;;;;9.21;50.39;98326.25;1757719;80;21120;-66
2021/01/28 02:18:14;;;;;;;6.10;4.67;;;;;;;9.21;50.40;98328.06;1771605;79;21749;-65
2021/01/28 02:21:24;;;;;;;4.47;4.03;;;;;;;9.21;50.37;98336.84;1758995;79;21210;-65
2021/01/28 02:23:59;;;;;;;4.85;4.10;;;;;;;9.19;50.36;98308.41;1751266;80;21597;-64
2021/01/28 02:26:28;;;;;;;6.08;4.80;;;;;;;9.18;50.37;98301.45;1748719;79;21611;-66
2021/01/28 02:28:57;;;;;;;5.53;4.08;;;;;;;9.18;50.38;98292.18;1758552;79;21171;-65
2021/01/28 02:31:25;;;;;;;4.78;4.28;;;;;;;9.18;50.42;98290.86;1767330;79;21365;-64
2021/01/28 02:34:00;;;;;;;4.75;4.15;;;;;;;9.18;50.40;98286.87;1752078;79;21048;-66
2021/01/28 02:36:53;;;;;;;6.10;5.50;;;;;;;9.23;50.42;98277.02;1806423;77;28042;-65
2021/01/28 02:39:27;;;;;;;;;;;;;;;9.47;50.12;98282.35;1799378;78;21166;-66
2021/01/28 02:42:00;;;;;;;4.73;4.23;;;;;;;9.74;49.48;98289.10;1827222;77;21870;-65
2021/01/28 02:44:28;;;;;;;5.08;3.90;;;;;;;9.56;49.69;98284.31;1803849;78;21166;-65
2021/01/28 02:47:10;;;;;;;5.70;4.40;;;;;;;9.53;49.79;98286.05;1807920;77;26784;-65
2021/01/28 02:49:50;;;;;;;6.08;4.70;;;;;;;9.47;49.82;98290.30;1769400;79;21154;-65
2021/01/28 02:52:18;;;;;;;5.30;4.05;;;;;;;9.44;49.88;98284.06;1823629;78;21347;-65
2021/01/28 02:54:51;;;;;;;4.92;4.28;;;;;;;9.41;49.90;98285.28;1816430;78;21106;-66
2021/01/28 02:57:19;;;;;;;5.33;4.50;;;;;;;9.39;49.94;98293.94;1802856;78;21067;-67
2021/01/28 02:59:48;;;;;;;5.62;4.65;;;;;;;9.38;49.98;98302.08;1810852;78;21160;-65
2021/01/28 03:02:18;;;;;;;4.75;4.10;;;;;;;9.35;50.03;98299.80;1801673;79;21161;-65
2021/01/28 03:04:46;;;;;;;4.53;3.77;;;;;;;9.35;50.05;98307.75;1789828;79;21364;-66
2021/01/28 03:07:16;;;;;;;4.67;4.03;;;;;;;9.34;50.06;98324.69;1792264;78;21592;-66
2021/01/28 03:09:43;;;;;;;5.42;4.20;;;;;;;9.34;50.07;98326.82;1789813;79;21190;-66
2021/01/28 03:12:31;;;;;;;5.58;4.30;;;;;;;9.33;50.09;98327.84;1799521;78;21157;-65
2021/01/28 03:15:08;;;;;;;5.35;4.40;;;;;;;9.31;50.11;98305.19;1806490;78;21125;-65
2021/01/28 03:17:39;;;;;;;5.70;4.12;;;;;;;9.29;50.14;98299.27;1786329;77;22299;-66
2021/01/28 03:20:09;;;;;;;5.60;4.40;;;;;;;9.27;50.18;98302.10;1794095;78;21153;-67
2021/01/28 03:22:39;;;;;;;5.50;4.12;;;;;;;9.27;50.19;98302.10;1795448;78;21162;-65
2021/01/28 03:25:25;;;;;;;4.10;3.70;;;;;;;9.31;50.22;98290.61;1817708;77;28702;-66
2021/01/28 03:27:53;;;;;;;4.53;3.83;;;;;;;9.27;50.19;98301.30;1797591;77;21129;-68
2021/01/28 03:30:32;;;;;;;4.70;4.25;;;;;;;9.27;50.23;98295.99;1807453;78;21363;-66
2021/01/28 03:33:01;;;;;;;5.47;4.65;;;;;;;9.24;50.21;98275.50;1803083;77;21332;-66
2021/01/28 03:35:29;;;;;;;4.78;4.12;;;;;;;9.25;50.22;98290.39;1785514;79;21186;-66
2021/01/28 03:37:59;;;;;;;5.12;4.60;;;;;;;9.25;50.24;98293.53;1813903;78;21192;-65
2021/01/28 03:40:29;;;;;;;5.05;4.30;;;;;;;9.25;50.25;98293.53;1799724;77;21163;-67
2021/01/28 03:42:58;;;;;;;4.62;3.92;;;;;;;9.24;50.26;98293.23;1798154;78;21736;-67
2021/01/28 03:45:29;;;;;;;5.42;4.53;;;;;;;9.24;50.26;98294.56;1784149;78;21577;-65
2021/01/28 03:47:58;;;;;;;4.85;4.35;;;;;;;9.23;50.29;98280.50;1785607;79;21172;-66
2021/01/28 03:50:41;;;;;;;5.08;4.45;;;;;;;9.28;50.30;98284.39;1808184;76;28218;-65
2021/01/28 03:53:28;;;;;;;4.83;3.98;;;;;;;9.24;50.29;98289.26;1728819;81;21679;-65
2021/01/28 03:56:08;;;;;;;5.50;5.00;;;;;;;9.27;50.32;98288.04;1751253;80;27471;-66
2021/01/28 03:58:36;;;;;;;5.35;4.22;;;;;;;9.21;50.33;98290.96;1722892;82;21168;-66
2021/01/28 04:01:22;;;;;;;4.78;3.90;;;;;;;9.21;50.33;98286.98;1715544;82;23699;-64
2021/01/28 04:03:51;;;;;;;5.28;4.37;;;;;;;9.20;50.35;98287.50;1710355;82;21063;-66
2021/01/28 04:06:40;;;;;;;5.78;4.70;;;;;;;9.24;50.36;98286.09;1812429;77;28715;-64
2021/01/28 04:09:12;;;;;;;5.12;4.35;;;;;;;9.20;50.35;98292.80;1795865;79;21007;-66
2021/01/28 04:11:45;;;;;;;;;;;;;;;9.09;50.37;98269.50;1793427;79;21199;-65
2021/01/28 04:14:14;;;;;;;5.67;4.62;;;;;;;9.19;50.39;98281.91;1798205;77;20256;-65
2021/01/28 04:16:42;;;;;;;5.15;4.65;;;;;;;9.12;50.50;98277.58;1808443;78;21134;-67
2021/01/28 04:19:09;;;;;;;5.05;4.42;;;;;;;9.12;50.51;98282.88;1800246;78;21179;-66
2021/01/28 04:21:39;;;;;;;6.25;4.92;;;;;;;9.14;50.51;98280.85;1825713;78;21174;-65
2021/01/28 04:24:08;;;;;;;5.17;4.67;;;;;;;9.14;50.51;98286.96;1810614;77;21133;-66
2021/01/28 04:26:37;;;;;;;5.05;4.50;;;;;;;9.16;50.50;98286.77;1823103;78;21119;-66
2021/01/28 04:29:05;;;;;;;6.22;5.53;;;;;;;9.16;50.50;98287.58;1805924;78;21070;-66
2021/01/28 04:31:58;;;;;;;5.22;4.47;;;;;;;9.21;50.48;98290.48;1830815;77;28173;-65
2021/01/28 04:34:31;;;;;;;5.50;4.70;;;;;;;9.17;50.45;98294.50;1748445;79;21197;-65
2021/01/28 04:37:00;;;;;;;5.10;4.25;;;;;;;9.17;50.47;98299.80;1797393;78;22219;-66
2021/01/28 04:39:41;;;;;;;6.05;5.45;;;;;;;9.18;50.45;98300.64;1775939;78;21212;-67
2021/01/28 04:42:18;;;;;;;5.70;4.85;;;;;;;9.18;50.46;98294.02;1800101;78;20960;-66
2021/01/28 04:44:48;;;;;;;5.80;5.08;;;;;;;9.18;50.46;98279.45;1791797;79;21170;-66
2021/01/28 04:47:20;;;;;;;6.12;4.97;;;;;;;9.18;50.45;98285.55;1785347;79;21215;-65
2021/01/28 04:49:57;;;;;;;5.47;4.78;;;;;;;9.19;50.45;98275.77;1805222;77;22123;-66
2021/01/28 04:52:32;;;;;;;5.62;5.08;;;;;;;9.18;50.44;98259.06;1795415;78;21186;-67
2021/01/28 04:55:23;;;;;;;5.92;5.00;;;;;;;9.18;50.43;98261.71;1784930;79;21079;-66
2021/01/28 04:57:52;;;;;;;5.42;4.85;;;;;;;9.17;50.46;98270.66;1807790;78;21610;-66
2021/01/28 05:00:21;;;;;;;6.50;5.60;;;;;;;9.17;50.44;98277.28;1794013;77;21217;-66
2021/01/28 05:03:25;;;;;;;6.47;5.58;;;;;;;9.17;50.47;98279.93;1798253;79;21909;-66
2021/01/28 05:06:03;;;;;;;6.65;5.30;;;;;;;9.21;50.50;98271.09;1824111;76;28253;-65
2021/01/28 05:08:49;;;;;;;5.70;4.95;;;;;;;9.17;50.49;98264.55;1786262;77;21181;-65
2021/01/28 05:11:58;;;;;;;5.95;5.10;;;;;;;9.20;50.50;98257.03;1814509;77;28114;-66
2021/01/28 05:14:44;;;;;;;6.22;4.97;;;;;;;9.15;50.52;98246.19;1806147;77;21102;-67
2021/01/28 05:17:31;;;;;;;7.10;5.22;;;;;;;9.13;50.55;98233.65;1785368;77;21373;-67
2021/01/28 05:20:20;;;;;;;7.22;5.28;;;;;;;9.12;50.55;98225.41;1792887;79;21221;-66
2021/01/28 05:23:13;;;;;;;6.78;5.70;;;;;;;9.17;50.58;98220.83;1830078;77;28131;-67
2021/01/28 05:25:42;;;;;;;;;;;;;;;9.13;50.56;98225.70;1836128;77;22027;-66
2021/01/28 05:28:37;;;;;;;6.47;5.25;;;;;;;9.12;50.60;98233.35;1822168;77;21211;-67
2021/01/28 05:31:32;;;;;;;7.22;5.35;;;;;;;9.05;50.67;98239.92;1830797;77;21184;-67
2021/01/28 05:34:26;;;;;;;6.53;5.33;;;;;;;9.05;50.73;98241.76;1830752;77;21065;-67
2021/01/28 05:37:04;;;;;;;7.25;5.55;;;;;;;9.06;50.70;98247.39;1836991;77;21161;-65
2021/01/28 05:39:47;;;;;;;6.47;5.55;;;;;;;9.10;50.73;98232.73;1760566;80;27103;-67
2021/01/28 05:42:26;;;;;;;6.22;5.45;;;;;;;9.08;50.72;98233.92;1726837;81;21213;-65
2021/01/28 05:44:56;;;;;;;6.28;5.58;;;;;;;9.08;50.74;98237.89;1727158;81;21376;-66
2021/01/28 05:47:33;;;;;;;7.05;5.45;;;;;;;9.09;50.71;98236.89;1732845;81;21219;-65
2021/01/28 05:50:29;;;;;;;7.33;5.70;;;;;;;9.09;50.71;98235.05;1744608;81;21209;-64
2021/01/28 05:53:17;;;;;;;7.37;6.05;;;;;;;9.09;50.71;98231.08;1734888;81;21169;-67
2021/01/28 05:55:46;;;;;;;5.85;5.20;;;;;;;9.09;50.70;98229.76;1739240;81;21156;-68
2021/01/28 05:58:41;;;;;;;7.22;5.78;;;;;;;9.09;50.71;98232.41;1724921;81;21373;-68
2021/01/28 06:01:23;;;;;;;6.07;5.40;;;;;;;9.10;50.73;98234.06;1734796;81;21611;-66
2021/01/28 06:04:22;;;;;;;6.53;5.58;;;;;;;9.10;50.72;98239.36;1728659;81;22331;-66
2021/01/28 06:07:33;;;;;;;5.80;5.20;;;;;;;9.10;50.73;98244.66;1732477;81;21672;-68
2021/01/28 06:10:51;;;;;;;7.30;5.78;;;;;;;9.12;50.77;98241.81;1812406;77;27260;-67
2021/01/28 06:14:00;;;;;;;7.08;6.08;;;;;;;9.07;50.80;98241.05;1797580;79;21139;-66
2021/01/28 06:16:53;;;;;;;6.97;5.95;;;;;;;9.06;50.83;98238.11;1783061;79;21367;-66
2021/01/28 06:19:54;;;;;;;7.12;5.58;;;;;;;9.06;50.85;98232.81;1821752;77;27021;-66
2021/01/28 06:22:38;;;;;;;6.78;5.60;;;;;;;9.05;50.85;98241.25;1785046;79;21187;-66
2021/01/28 06:25:46;;;;;;;6.45;5.85;;;;;;;9.05;50.85;98247.06;1762813;79;21193;-65
2021/01/28 06:28:44;;;;;;;6.70;5.45;;;;;;;9.03;50.86;98236.65;1768174;78;21172;-65
2021/01/28 06:31:18;;;;;;;6.20;5.53;;;;;;;9.04;50.86;98233.00;1773961;78;21184;-65
2021/01/28 06:34:13;;;;;;;6.67;5.70;;;;;;;9.09;50.90;98244.33;1814111;76;27220;-67
2021/01/28 06:37:25;;;;;;;7.30;6.33;;;;;;;9.05;50.84;98243.89;1780014;79;21453;-67
2021/01/28 06:40:15;;;;;;;6.97;5.30;;;;;;;9.07;50.86;98254.81;1765452;78;22599;-67
2021/01/28 06:43:11;;;;;;;7.40;6.25;;;;;;;9.09;50.93;98241.67;1817743;76;27276;-68
2021/01/28 06:46:01;;;;;;;7.55;6.37;;;;;;;9.06;50.89;98239.44;1797842;77;21194;-66
2021/01/28 06:48:43;;;;;;;6.95;6.22;;;;;;;9.07;50.89;98233.11;1784443;79;26446;-67
2021/01/28 06:51:34;;;;;;;6.97;5.25;;;;;;;9.07;50.89;98226.48;1781933;79;21938;-66
2021/01/28 06:54:14;;;;;;;7.05;5.75;;;;;;;9.09;50.86;98232.92;1795880;79;21185;-66
2021/01/28 06:56:47;;;;;;;7.35;6.50;;;;;;;9.10;50.85;98234.06;1789605;77;21178;-65
2021/01/28 06:59:39;;;;;;;6.83;5.97;;;;;;;9.15;50.84;98216.23;1760761;80;28285;-67
2021/01/28 07:02:45;;;;;;;6.80;6.05;;;;;;;9.12;50.82;98207.38;1711019;82;21643;-68
2021/01/28 07:05:46;;;;;;;6.28;5.58;;;;;;;9.12;50.80;98200.23;1734057;82;21220;-66
2021/01/28 07:08:44;;;;;;;7.55;6.25;;;;;;;9.11;50.81;98207.86;1747127;80;21170;-67
2021/01/28 07:11:41;;;;;;;7.75;6.87;;;;;;;9.10;50.83;98210.22;1731839;81;21212;-66
2021/01/28 07:14:24;;;;;;;7.35;6.25;;;;;;;9.13;50.85;98207.16;1830103;77;28292;-68
2021/01/28 07:17:17;;;;;;;8.15;6.75;;;;;;;9.10;50.85;98214.19;1772739;79;21161;-66
2021/01/28 07:19:58;;;;;;;7.08;6.37;;;;;;;9.10;50.86;98207.56;1779365;79;21433;-66
2021/01/28 07:22:40;;;;;;;7.33;6.47;;;;;;;9.11;50.85;98203.08;1822110;78;28746;-67
2021/01/28 07:25:27;;;;;;;7.53;6.58;;;;;;;9.13;50.84;98190.45;1800230;78;21196;-67
2021/01/28 07:28:14;;;;;;;7.42;6.15;;;;;;;9.12;50.85;98179.05;1809895;77;21175;-65
2021/01/28 07:30:50;;;;;;;7.58;6.35;;;;;;;9.15;50.83;98173.84;1800220;79;21122;-65
2021/01/28 07:33:30;;;;;;;8.13;6.30;;;;;;;9.18;50.81;98165.00;1842296;76;27265;-66
2021/01/28 07:36:26;;;;;;;7.53;6.28;;;;;;;9.16;50.79;98168.36;1849177;76;21147;-66
2021/01/28 07:39:34;;;;;;;7.20;6.50;;;;;;;9.17;50.78;98171.30;1832830;77;22561;-68
2021/01/28 07:42:26;;;;;;;8.48;6.10;;;;;;;9.20;50.86;98181.52;1811783;77;27589;-67
2021/01/28 07:45:22;;;;;;;7.05;6.35;;;;;;;9.17;51.01;98193.02;1800468;78;21155;-67
2021/01/28 07:47:52;;;;;;;7.40;6.28;;;;;;;9.18;51.13;98189.36;1805892;77;21378;-68
2021/01/28 07:50:35;;;;;;;8.08;6.75;;;;;;;9.19;51.16;98201.09;1799325;78;21030;-66
2021/01/28 07:53:38;;;;;;;7.47;6.55;;;;;;;9.21;51.15;98199.06;1802982;78;21145;-68
2021/01/28 07:56:08;;;;;;;6.55;5.83;;;;;;;9.22;51.12;98190.09;1793006;79;21061;-69
2021/01/28 07:58:35;;;;;;;6.62;5.80;;;;;;;9.24;51.09;98188.57;1777489;78;21134;-74
2021/01/28 08:01:09;;;;;;;6.97;5.90;;;;;;;9.24;51.04;98189.38;1807174;78;21186;-70
2021/01/28 08:03:48;;;;;;;5.95;5.35;;;;;;;9.28;51.00;98187.67;1805064;77;21106;-73
2021/01/28 08:06:15;;;;;;;6.20;5.17;;;;;;;9.30;50.96;98180.34;1786558;79;21371;-71
2021/01/28 08:08:43;;;;;;;7.95;5.78;;;;;;;9.32;50.92;98194.20;1781927;78;21666;-69
2021/01/28 08:11:15;;;;;;;7.35;5.92;;;;;;;9.33;50.87;98200.64;1795730;79;21157;-70
2021/01/28 08:13:42;;;;;;;6.22;5.28;;;;;;;9.36;50.85;98199.42;1789659;78;22289;-71
2021/01/28 08:16:14;;;;;;;5.97;5.37;;;;;;;9.37;50.79;98209.02;1796340;77;21641;-67
2021/01/28 08:18:45;;;;;;;6.30;5.57;;;;;;;9.39;50.74;98217.59;1786917;78;21152;-66
2021/01/28 08:21:22;;;;;;;7.60;5.90;;;;;;;9.41;50.71;98219.02;1795391;77;21232;-69
2021/01/28 08:23:50;;;;;;;6.03;4.80;;;;;;;9.41;50.68;98226.16;1790683;78;21610;-69
2021/01/28 08:26:32;;;;;;;6.20;5.37;;;;;;;9.43;50.66;98222.80;1797433;79;21367;-69
2021/01/28 08:29:16;;;;;;;7.28;5.85;;;;;;;9.44;50.62;98204.05;1796227;78;21185;-68
2021/01/28 08:31:52;;;;;;;6.62;5.50;;;;;;;9.44;50.59;98196.10;1791162;77;21628;-68
2021/01/28 08:34:23;;;;;;;6.72;5.75;;;;;;;9.45;50.59;98191.61;1786751;79;21240;-67
2021/01/28 08:36:55;;;;;;;6.92;5.80;;;;;;;9.47;50.58;98186.92;1771644;78;21137;-68
2021/01/28 08:39:34;;;;;;;6.55;5.33;;;;;;;9.48;50.54;98176.61;1813065;78;21811;-69
2021/01/28 08:42:17;;;;;;;5.87;5.05;;;;;;;9.51;50.50;98175.42;1802053;78;21213;-67
2021/01/28 08:44:46;;;;;;;5.47;4.83;;;;;;;9.52;50.47;98186.31;1801266;78;21185;-69
2021/01/28 08:47:26;;;;;;;6.42;5.25;;;;;;;9.54;50.44;98185.61;1820677;77;21186;-70
2021/01/28 08:50:16;;;;;;;6.15;5.22;;;;;;;9.56;50.44;98196.83;1786236;79;21563;-68
2021/01/28 08:52:44;;;;;;;6.00;5.40;;;;;;;9.59;50.36;98188.48;1779818;79;21185;-71
2021/01/28 08:55:19;;;;;;;6.30;5.30;;;;;;;9.60;50.34;98184.80;1748769;79;21149;-68
2021/01/28 08:57:46;;;;;;;7.00;5.25;;;;;;;9.61;50.33;98184.61;1779192;78;21570;-70
2021/01/28 09:00:15;;;;;;;5.65;5.05;;;;;;;9.63;50.29;98181.77;1800069;78;21838;-69
2021/01/28 09:02:44;;;;;;;6.25;5.00;;;;;;;9.65;50.25;98179.73;1789128;78;21558;-68
2021/01/28 09:05:26;;;;;;;5.55;4.95;;;;;;;9.69;50.21;98184.12;1777827;79;22127;-68
2021/01/28 09:08:00;;;;;;;5.22;4.70;;;;;;;9.70;50.18;98177.81;1793741;79;21169;-69
2021/01/28 09:10:37;;;;;;;5.95;5.35;;;;;;;9.71;50.14;98168.83;1781998;79;21190;-69
2021/01/28 09:13:18;;;;;;;6.30;5.22;;;;;;;9.73;50.15;98165.47;1788218;79;21154;-70
2021/01/28 09:15:47;;;;;;;5.28;4.67;;;;;;;9.74;50.11;98168.44;1787305;79;21158;-68
2021/01/28 09:18:33;;;;;;;5.03;4.33;;;;;;;9.75;50.10;98143.02;1783607;79;21196;-67
2021/01/28 09:21:20;;;;;;;5.87;4.92;;;;;;;9.76;50.09;98143.86;1789906;77;21225;-67
2021/01/28 09:24:04;;;;;;;6.17;4.78;;;;;;;9.65;50.07;98141.28;1780480;79;21163;-68
2021/01/28 09:26:36;;;;;;;5.87;4.90;;;;;;;9.78;50.06;98163.03;1780528;79;21642;-69
2021/01/28 09:29:16;;;;;;;5.75;5.15;;;;;;;9.79;50.05;98148.74;1789231;78;21602;-67
2021/01/28 09:31:45;;;;;;;5.62;4.72;;;;;;;9.80;50.06;98143.24;1769106;79;21203;-67
2021/01/28 09:34:29;;;;;;;6.33;5.20;;;;;;;9.82;50.04;98147.83;1776473;78;21138;-67
2021/01/28 09:37:03;;;;;;;5.20;4.47;;;;;;;9.84;50.02;98157.73;1770924;79;21158;-68
2021/01/28 09:39:45;;;;;;;5.10;4.33;;;;;;;9.86;49.99;98164.69;1789939;79;21158;-69
2021/01/28 09:42:33;;;;;;;5.62;4.60;;;;;;;9.89;49.96;98152.33;1796848;79;21146;-68
2021/01/28 09:45:11;;;;;;;6.87;4.75;;;;;;;9.89;49.92;98129.30;1785340;77;21435;-68
2021/01/28 09:47:38;;;;;;;5.20;4.40;;;;;;;9.89;49.93;98120.01;1793884;77;21217;-69
2021/01/28 09:50:10;;;;;;;6.58;5.17;;;;;;;9.90;49.94;98129.58;1790040;77;21153;-68
2021/01/28 09:52:43;;;;;;;5.47;4.50;;;;;;;9.92;49.93;98143.45;1793983;77;21174;-72
2021/01/28 09:55:20;;;;;;;4.50;4.10;;;;;;;9.95;49.90;98145.72;1787363;79;21162;-71
2021/01/28 09:57:49;;;;;;;5.47;4.30;;;;;;;9.96;49.86;98137.23;1782395;77;21364;-74
2021/01/28 10:00:20;;;;;;;5.83;4.80;;;;;;;9.97;49.84;98137.05;1775610;78;21164;-73
2021/01/28 10:02:55;;;;;;;5.70;4.55;;;;;;;9.98;49.82;98124.06;1786849;77;21146;-72
2021/01/28 10:05:27;;;;;;;5.37;4.67;;;;;;;10.00;49.78;98114.59;1779085;78;21132;-70
2021/01/28 10:07:55;;;;;;;4.90;4.30;;;;;;;10.01;49.77;98100.31;1763618;78;21141;-69
2021/01/28 10:10:25;;;;;;;5.35;4.40;;;;;;;10.02;49.76;98104.09;1765061;79;21377;-70
2021/01/28 10:12:58;;;;;;;4.20;3.80;;;;;;;10.04;49.72;98105.20;1800750;79;21197;-70
2021/01/28 10:15:26;;;;;;;;;;;;;;;10.06;49.71;98103.67;1816435;77;21693;-71
2021/01/28 10:17:55;;;;;;;4.53;3.95;;;;;;;10.07;49.68;98110.10;1802218;79;20218;-70
2021/01/28 10:20:23;;;;;;;4.90;4.12;;;;;;;10.02;49.78;98119.17;1767554;78;21129;-70
2021/01/28 10:22:51;;;;;;;5.42;3.83;;;;;;;10.02;49.76;98124.48;1789814;79;21182;-71
2021/01/28 10:25:20;;;;;;;4.58;4.08;;;;;;;10.06;49.73;98128.88;1775246;80;21657;-72
2021/01/28 10:27:50;;;;;;;4.60;4.10;;;;;;;10.08;49.67;98122.85;1792746;79;21130;-69
2021/01/28 10:30:19;;;;;;;4.83;3.90;;;;;;;10.09;49.66;98120.52;1798015;77;21170;-67
2021/01/28 10:32:47;;;;;;;4.42;3.92;;;;;;;10.10;49.68;98116.34;1794073;79;21127;-70
2021/01/28 10:35:18;;;;;;;4.10;3.62;;;;;;;10.12;49.64;98122.26;1797014;77;21348;-70
2021/01/28 10:37:45;;;;;;;4.12;3.62;;;;;;;10.13;49.65;98119.09;1791298;79;21183;-71
2021/01/28 10:40:14;;;;;;;4.22;3.62;;;;;;;10.13;49.60;98111.13;1795123;77;21563;-70
2021/01/28 10:42:42;;;;;;;5.10;4.25;;;;;;;10.14;49.60;98114.06;1800852;78;21287;-70
2021/01/28 10:47:11;;;;;;;6.10;4.33;;;;;;;10.19;49.58;98109.78;1885287;76;28172;-70
2021/01/28 10:49:39;;;;;;;4.28;3.67;;;;;;;10.12;49.63;98108.16;1793360;78;21588;-71
2021/01/28 10:52:06;;;;;;;5.75;4.37;;;;;;;10.14;49.60;98108.76;1810994;78;21245;-67
2021/01/28 10:54:33;;;;;;;4.28;3.77;;;;;;;10.16;49.58;98112.86;1771387;80;21187;-68
2021/01/28 10:57:03;;;;;;;4.10;3.67;;;;;;;10.17;49.55;98115.80;1773152;79;21127;-67
2021/01/28 10:59:30;;;;;;;3.95;3.42;;;;;;;10.18;49.53;98122.76;1788927;80;21679;-71
2021/01/28 11:01:57;;;;;;;4.80;3.90;;;;;;;10.18;49.52;98125.41;1810941;78;21641;-70
2021/01/28 11:04:25;;;;;;;4.28;3.60;;;;;;;10.20;49.50;98133.17;1778331;79;21636;-69
2021/01/28 11:06:53;;;;;;;4.00;3.60;;;;;;;10.20;49.51;98135.83;1815174;78;21012;-70
2021/01/28 11:09:20;;;;;;;3.90;3.40;;;;;;;10.19;49.48;98138.16;1808727;78;21154;-68
2021/01/28 11:11:49;;;;;;;6.05;3.65;;;;;;;10.22;49.50;98144.40;1814089;78;21083;-65
2021/01/28 11:14:16;;;;;;;3.80;3.47;;;;;;;10.21;49.50;98140.09;1800364;78;21142;-67
2021/01/28 11:16:43;;;;;;;4.22;3.77;;;;;;;10.20;49.47;98127.34;1780880;78;23683;-69
2021/01/28 11:19:11;;;;;;;4.28;3.45;;;;;;;10.20;49.47;98116.73;1789640;78;21159;-68
2021/01/28 11:21:38;;;;;;;4.05;3.60;;;;;;;10.21;49.46;98110.91;1783727;80;21240;-71
2021/01/28 11:24:06;;;;;;;5.03;4.20;;;;;;;10.22;49.47;98107.25;1808623;78;21206;-71
2021/01/28 11:26:34;;;;;;;4.45;3.98;;;;;;;10.21;49.47;98091.81;1774381;79;21639;-70
2021/01/28 11:29:04;;;;;;;4.30;3.47;;;;;;;10.21;49.44;98078.55;1812356;78;23669;-69
2021/01/28 11:31:31;;;;;;;3.87;3.22;;;;;;;10.23;49.48;98078.34;1803680;78;21108;-69
2021/01/28 11:33:58;;;;;;;4.70;3.92;;;;;;;10.21;49.49;98082.52;1770203;80;21166;-67
2021/01/28 11:36:25;;;;;;;3.90;3.42;;;;;;;10.23;49.46;98088.95;1776499;79;21150;-69
2021/01/28 11:38:52;;;;;;;4.87;3.50;;;;;;;10.23;49.48;98081.80;1803361;78;21151;-71
2021/01/28 11:41:20;;;;;;;4.22;3.83;;;;;;;10.23;49.46;98073.03;1775006;80;22695;-68
2021/01/28 11:43:47;;;;;;;4.67;3.50;;;;;;;10.23;49.49;98077.83;1791074;80;21166;-68
2021/01/28 11:46:15;;;;;;;4.50;3.50;;;;;;;10.23;49.46;98072.52;1773826;80;21185;-70
2021/01/28 11:48:42;;;;;;;4.28;3.62;;;;;;;10.23;49.46;98062.42;1785300;80;21136;-68
2021/01/28 11:51:10;;;;;;;4.20;3.20;;;;;;;10.24;49.49;98060.89;1789576;79;21155;-67
2021/01/28 11:53:39;;;;;;;4.25;3.15;;;;;;;10.24;49.50;98056.10;1762317;80;21381;-68
2021/01/28 11:56:06;;;;;;;4.70;3.10;;;;;;;10.24;49.48;98053.45;1768936;80;21167;-68
2021/01/28 11:58:36;;;;;;;5.47;3.45;;;;;;;10.25;49.49;98051.08;1770717;80;21777;-68
2021/01/28 12:01:03;;;;;;;4.05;3.45;;;;;;;10.26;49.48;98046.09;1768685;80;21162;-69
2021/01/28 12:03:30;;;;;;;4.40;3.40;;;;;;;10.26;49.46;98042.11;1776654;80;21135;-69
2021/01/28 12:05:58;;;;;;;4.72;3.65;;;;;;;10.27;49.45;98040.27;1774385;80;21504;-69
2021/01/28 12:08:27;;;;;;;5.12;3.92;;;;;;;10.27;49.45;98037.09;1771817;80;21193;-71
2021/01/28 12:10:54;;;;;;;3.40;3.10;;;;;;;10.27;49.43;98035.77;1772834;80;21173;-70
2021/01/28 12:13:22;;;;;;;4.17;3.67;;;;;;;10.28;49.44;98026.80;1778825;79;21163;-70
2021/01/28 12:15:50;;;;;;;4.62;3.47;;;;;;;10.27;49.41;98029.13;1766504;80;21146;-69
2021/01/28 12:18:17;;;;;;;4.03;3.30;;;;;;;10.28;49.43;98020.68;1788232;80;21269;-71
2021/01/28 12:20:44;;;;;;;4.28;3.37;;;;;;;10.30;49.39;98018.14;1773902;80;21186;-68
2021/01/28 12:23:13;;;;;;;4.05;3.65;;;;;;;10.32;49.39;98019.27;1782782;80;21135;-69
2021/01/28 12:25:42;;;;;;;5.00;3.15;;;;;;;10.33;49.39;98021.69;1783369;80;21146;-68